createdAt,value
2023-04-14T00:01:15.028Z,10.73
2023-04-14T00:06:37.122Z,12.73
2023-04-14T00:11:58.932Z,11.07
2023-04-14T00:17:20.797Z,11.85
2023-04-14T00:22:42.666Z,10.95
2023-04-14T00:28:04.577Z,10.57
2023-04-14T00:33:26.416Z,10.07
2023-04-14T00:38:48.261Z,13.63
2023-04-14T00:44:10.113Z,14.65
2023-04-14T00:49:32.118Z,13.73
2023-04-14T00:54:54.104Z,13.52
2023-04-14T01:00:16.296Z,14.80
2023-04-14T01:05:38.152Z,12.93
2023-04-14T01:11:20.768Z,13.98
2023-04-14T01:16:43.329Z,13.40
2023-04-14T01:22:09.199Z,13.07
2023-04-14T01:27:36.335Z,17.23
2023-04-14T01:33:03.530Z,15.45
2023-04-14T01:38:27.717Z,13.77
2023-04-14T01:43:53.822Z,15.13
2023-04-14T01:49:18.222Z,18.52
2023-04-14T01:54:42.583Z,12.98
2023-04-14T02:00:07.570Z,14.75
2023-04-14T02:05:31.527Z,15.82
2023-04-14T02:10:57.568Z,13.93
2023-04-14T02:16:20.213Z,14.70
2023-04-14T02:21:42.655Z,13.02
2023-04-14T02:27:11.791Z,12.38
2023-04-14T02:32:36.299Z,16.08
2023-04-14T02:38:07.353Z,14.07
2023-04-14T02:43:32.220Z,13.93
2023-04-14T02:48:55.009Z,12.95
2023-04-14T02:54:18.700Z,15.38
2023-04-14T02:59:42.054Z,14.63
2023-04-14T03:05:05.693Z,17.48
2023-04-14T03:10:28.199Z,14.10
2023-04-14T03:15:52.892Z,15.70
2023-04-14T03:21:15.889Z,14.20
2023-04-14T03:26:38.822Z,16.73
2023-04-14T03:32:05.119Z,13.20
2023-04-14T03:37:28.745Z,12.95
2023-04-14T03:42:51.059Z,16.58
2023-04-14T03:48:14.570Z,14.60
2023-04-14T03:53:38.134Z,16.08
2023-04-14T03:59:01.323Z,18.70
2023-04-14T04:04:24.037Z,25.35
2023-04-14T04:09:48.277Z,22.02
2023-04-14T04:15:10.479Z,37.35
2023-04-14T04:20:34.573Z,84.22
2023-04-14T04:25:56.518Z,86.00
2023-04-14T04:31:20.005Z,52.33
2023-04-14T04:36:42.972Z,90.85
2023-04-14T04:42:06.061Z,114.53
2023-04-14T04:47:27.886Z,129.73
2023-04-14T04:52:49.713Z,60.92
2023-04-14T04:58:11.557Z,87.95
2023-04-14T05:03:33.447Z,68.80
2023-04-14T05:08:55.863Z,46.38
2023-04-14T05:14:17.664Z,22.40
2023-04-14T05:19:39.520Z,17.92
2023-04-14T05:25:01.468Z,17.08
2023-04-14T05:30:23.587Z,17.33
2023-04-14T05:35:45.925Z,15.13
2023-04-14T05:41:07.809Z,15.02
2023-04-14T05:46:29.665Z,13.75
2023-04-14T05:51:54.210Z,15.00
2023-04-14T05:57:15.977Z,15.23
2023-04-14T06:02:41.855Z,13.70
2023-04-14T06:08:03.895Z,13.33
2023-04-14T06:13:25.771Z,16.90
2023-04-14T06:18:47.601Z,12.20
2023-04-14T06:24:09.457Z,12.32
2023-04-14T06:29:31.355Z,11.75
2023-04-14T06:34:53.551Z,11.52
2023-04-14T06:40:15.376Z,9.05
2023-04-14T06:45:37.340Z,8.75
2023-04-14T06:50:59.358Z,7.88
2023-04-14T06:56:21.208Z,8.30
2023-04-14T07:01:43.119Z,8.25
2023-04-14T07:07:05.076Z,7.55
2023-04-14T07:12:26.927Z,9.00
2023-04-14T07:17:48.904Z,7.72
2023-04-14T07:23:10.730Z,6.20
2023-04-14T07:28:32.615Z,4.78
2023-04-14T07:33:54.443Z,4.32
2023-04-14T07:39:16.551Z,4.78
2023-04-14T07:44:38.510Z,4.82
2023-04-14T07:50:00.434Z,4.35
2023-04-14T07:55:22.290Z,4.18
2023-04-14T08:00:44.181Z,4.57
2023-04-14T08:06:06.472Z,4.80
2023-04-14T08:11:28.354Z,4.03
2023-04-14T08:16:50.338Z,5.43
2023-04-14T08:22:12.458Z,4.88
2023-04-14T08:27:34.285Z,4.60
2023-04-14T08:32:58.897Z,4.90
2023-04-14T08:38:21.119Z,5.20
2023-04-14T08:43:43.093Z,4.07
2023-04-14T08:49:07.222Z,4.93
2023-04-14T08:54:30.030Z,5.38
2023-04-14T08:59:52.538Z,4.57
2023-04-14T09:05:15.390Z,4.95
2023-04-14T09:10:38.116Z,4.38
2023-04-14T09:15:59.999Z,4.78
2023-04-14T09:21:50.329Z,5.20
2023-04-14T09:27:05.469Z,5.80
2023-04-14T09:32:27.398Z,5.72
2023-04-14T09:37:49.197Z,5.00
2023-04-14T09:43:27.725Z,5.32
2023-04-14T09:48:56.848Z,5.28
2023-04-14T09:54:26.186Z,5.32
2023-04-14T09:59:48.018Z,7.07
2023-04-14T10:05:10.179Z,5.72
2023-04-14T10:10:32.218Z,5.72
2023-04-14T10:15:54.191Z,5.40
2023-04-14T10:21:16.502Z,5.43
2023-04-14T10:26:38.385Z,9.93
2023-04-14T10:32:06.325Z,6.72
2023-04-14T10:37:28.316Z,6.07
2023-04-14T10:42:54.439Z,7.00
2023-04-14T10:48:16.581Z,8.82
2023-04-14T10:53:48.553Z,6.80
2023-04-14T10:59:10.411Z,5.15
2023-04-14T11:04:32.352Z,5.68
2023-04-14T11:09:58.526Z,5.70
2023-04-14T11:15:20.396Z,4.45
2023-04-14T11:20:42.480Z,5.22
2023-04-14T11:26:08.828Z,6.85
2023-04-14T11:31:30.728Z,4.65
2023-04-14T11:36:52.685Z,5.63
2023-04-14T11:42:14.599Z,4.93
2023-04-14T11:47:36.463Z,5.25
2023-04-14T11:53:01.239Z,9.50
2023-04-14T11:58:26.291Z,4.23
2023-04-14T12:03:48.348Z,4.00
2023-04-14T12:09:10.251Z,4.07
2023-04-14T12:14:32.213Z,4.65
2023-04-14T12:19:54.036Z,3.80
2023-04-14T12:25:15.912Z,4.20
2023-04-14T12:30:37.987Z,5.30
2023-04-14T12:36:05.075Z,2.78
2023-04-14T12:41:27.059Z,3.65
2023-04-14T12:46:52.831Z,3.65
2023-04-14T12:52:38.165Z,2.83
2023-04-14T12:58:00.040Z,2.58
2023-04-14T13:03:22.105Z,3.33
2023-04-14T13:08:48.956Z,8.95
2023-04-14T13:14:10.778Z,5.75
2023-04-14T13:19:32.696Z,3.58
2023-04-14T13:24:55.427Z,5.28
2023-04-14T13:30:17.370Z,5.18
2023-04-14T13:35:39.777Z,7.88
2023-04-14T13:41:01.663Z,3.63
2023-04-14T13:46:23.599Z,5.50
2023-04-14T13:51:45.458Z,3.97
2023-04-14T13:57:07.303Z,3.25
2023-04-14T14:02:29.262Z,6.38
2023-04-14T14:07:51.227Z,3.67
2023-04-14T14:13:13.069Z,5.32
2023-04-14T14:18:36.499Z,4.25
2023-04-14T14:23:58.367Z,4.80
2023-04-14T14:29:20.205Z,3.33
2023-04-14T14:34:42.373Z,3.67
2023-04-14T14:40:04.607Z,3.67
2023-04-14T14:45:30.423Z,4.95
2023-04-14T14:56:14.712Z,6.05
2023-04-14T15:01:36.695Z,6.47
2023-04-14T15:06:58.616Z,5.25
2023-04-14T15:12:20.480Z,6.82
2023-04-14T15:17:42.343Z,5.75
2023-04-14T15:23:04.252Z,5.55
2023-04-14T15:28:26.092Z,7.50
2023-04-14T15:33:47.884Z,5.13
2023-04-14T15:39:09.670Z,4.18
2023-04-14T15:44:31.477Z,7.85
2023-04-14T15:50:12.997Z,5.22
2023-04-14T15:55:35.196Z,6.78
2023-04-14T16:00:57.083Z,4.88
2023-04-14T16:06:18.972Z,6.00
2023-04-14T16:11:40.845Z,3.95
2023-04-14T16:17:02.670Z,4.53
2023-04-14T16:22:24.490Z,4.07
2023-04-14T16:27:46.305Z,3.30
2023-04-14T16:33:08.202Z,4.72
2023-04-14T16:38:30.526Z,6.97
2023-04-14T16:43:52.310Z,8.68
2023-04-14T16:49:14.133Z,7.80
2023-04-14T16:54:36.017Z,6.45
2023-04-14T16:59:57.861Z,8.57
2023-04-14T17:05:20.397Z,6.78
2023-04-14T17:10:42.251Z,7.07
2023-04-14T17:16:08.783Z,6.35
2023-04-14T17:21:31.560Z,7.45
2023-04-14T17:26:53.359Z,5.70
2023-04-14T17:32:15.226Z,7.55
2023-04-14T17:37:37.114Z,7.18
2023-04-14T17:42:58.984Z,7.03
2023-04-14T17:48:20.871Z,7.47
2023-04-14T17:53:42.730Z,7.40
2023-04-14T17:59:04.598Z,9.95
2023-04-14T18:04:26.478Z,7.05
2023-04-14T18:09:48.318Z,8.98
2023-04-14T18:15:10.288Z,8.65
2023-04-14T18:20:32.110Z,8.13
2023-04-14T18:31:26.260Z,7.78
2023-04-14T18:36:48.125Z,7.68
2023-04-14T18:42:10.101Z,6.65
2023-04-14T18:47:31.910Z,9.68
2023-04-14T18:52:53.749Z,7.10
2023-04-14T18:58:15.562Z,8.80
2023-04-14T19:03:37.487Z,8.18
2023-04-14T19:08:59.584Z,10.02
2023-04-14T19:14:21.683Z,8.27
2023-04-14T19:19:43.471Z,9.73
2023-04-14T19:25:05.674Z,9.35
2023-04-14T19:30:27.906Z,11.18
2023-04-14T19:35:49.708Z,9.48
2023-04-14T19:41:11.634Z,10.90
2023-04-14T19:46:33.454Z,10.85
2023-04-14T19:51:55.260Z,8.18
2023-04-14T19:57:17.136Z,9.00
2023-04-14T20:02:39.069Z,10.02
2023-04-14T20:08:00.950Z,8.15
2023-04-14T20:13:23.985Z,8.38
2023-04-14T20:18:45.881Z,9.02
2023-04-14T20:24:07.737Z,8.05
2023-04-14T20:29:29.614Z,8.52
2023-04-14T20:34:51.547Z,10.48
2023-04-14T20:40:13.434Z,8.48
2023-04-14T20:45:35.606Z,8.93
2023-04-14T20:50:57.595Z,9.40
2023-04-14T20:56:19.473Z,10.57
2023-04-14T21:01:41.370Z,8.43
2023-04-14T21:07:03.330Z,7.40
2023-04-14T21:12:25.164Z,9.45
2023-04-14T21:17:57.569Z,12.50
2023-04-14T21:23:19.473Z,9.05
2023-04-14T21:28:41.403Z,10.43
2023-04-14T21:34:03.231Z,8.77
2023-04-14T21:39:25.795Z,10.82
2023-04-14T21:44:47.604Z,9.52
2023-04-14T21:50:09.937Z,8.07
2023-04-14T21:55:31.853Z,10.05
2023-04-14T22:00:53.758Z,9.93
2023-04-14T22:06:17.476Z,11.18
2023-04-14T22:11:39.364Z,10.98
2023-04-14T22:17:01.345Z,10.23
2023-04-14T22:22:23.200Z,8.90
2023-04-14T22:27:45.083Z,8.55
2023-04-14T22:33:07.300Z,8.23
2023-04-14T22:38:29.574Z,8.15
2023-04-14T22:43:51.446Z,9.02
2023-04-14T22:49:13.303Z,7.22
2023-04-14T22:54:35.191Z,9.38
2023-04-14T22:59:57.019Z,10.32
2023-04-14T23:05:20.088Z,9.73
2023-04-14T23:10:41.935Z,8.63
2023-04-14T23:16:03.934Z,9.85
2023-04-14T23:21:25.895Z,9.38
2023-04-14T23:26:47.761Z,8.75
2023-04-14T23:32:09.650Z,8.63
2023-04-14T23:37:31.511Z,9.73
2023-04-14T23:42:53.317Z,11.25
2023-04-14T23:48:15.153Z,8.90
2023-04-14T23:53:36.964Z,12.70
2023-04-14T23:58:59.520Z,8.88
